Gallup Municipal Airport Gallup US
ICAO: KGUP
IATA: GUP
Category: Medium
Scheduled Services: No

Elevation: 6472 ft
TransAlt. 18000 ft.

Airport Communications:
ASOS:118.375
ALBUQUERQUE RDO:122.6
CTAF/UNICOM:122.95

KGUP Zoom In..

If you have problems with the map follow the link
https://www.worldairports.se/pages/airport.php?
ICAO=KGUP

Runways:

(A) RW 06 length 7316 ft width 100 ft
LOC 111.70 / hdg 62

(B) RW 24 length 7316 ft width 100 ft
LOC 111.70 / hdg 242

Location; KGUP
Day. 27 / Time. 00.53 Zulu
* Altimeter: 30.11
* Temperature: 07° c. 44.6°f.
* Wind from: 220° Speed 06 kn.
Dewpoint: -03° c.
Visibility: 10 Statute Miles.
Clouds: Clear (automated report).

KGUP 270053Z AUTO 22006KT 10SM CLR 07/M03 A3011 RMK AO2 SLP201 T00671033


Wind From 220°
Speed 06 kn.

 
 
jpsmedia worldairports.se 2020   terms of use